createdAt,value
2022-08-02T00:01:00.311Z,2.73
2022-08-02T00:03:27.391Z,3.90
2022-08-02T00:05:54.505Z,2.93
2022-08-02T00:08:22.912Z,3.17
2022-08-02T00:10:50.401Z,2.72
2022-08-02T00:13:17.670Z,3.28
2022-08-02T00:15:44.749Z,3.20
2022-08-02T00:18:11.798Z,3.33
2022-08-02T00:20:39.114Z,3.08
2022-08-02T00:23:06.274Z,2.80
2022-08-02T00:25:33.368Z,3.03
2022-08-02T00:28:00.437Z,3.23
2022-08-02T00:30:27.506Z,3.37
2022-08-02T00:32:54.560Z,3.13
2022-08-02T00:35:21.615Z,3.97
2022-08-02T00:37:48.766Z,3.57
2022-08-02T00:40:15.873Z,3.65
2022-08-02T00:42:44.309Z,3.30
2022-08-02T00:45:11.587Z,2.97
2022-08-02T00:47:38.682Z,3.13
2022-08-02T00:50:06.633Z,3.23
2022-08-02T00:52:33.769Z,2.80
2022-08-02T00:55:00.817Z,3.00
2022-08-02T00:57:27.856Z,3.40
2022-08-02T00:59:54.909Z,2.93
2022-08-02T01:02:22.056Z,3.13
2022-08-02T01:04:49.121Z,3.53
2022-08-02T01:07:16.173Z,3.30
2022-08-02T01:09:46.930Z,3.17
2022-08-02T01:12:15.959Z,3.10
2022-08-02T01:14:51.429Z,4.03
2022-08-02T01:17:55.049Z,2.97
2022-08-02T01:20:53.211Z,3.30
2022-08-02T01:24:11.398Z,2.90
2022-08-02T01:27:24.017Z,2.80
2022-08-02T01:30:00.807Z,3.08
2022-08-02T01:32:45.989Z,3.72
2022-08-02T01:35:50.670Z,2.72
2022-08-02T01:38:34.768Z,2.97
2022-08-02T01:41:09.813Z,2.70
2022-08-02T01:43:43.830Z,2.90
2022-08-02T01:46:16.687Z,3.30
2022-08-02T01:48:48.839Z,3.58
2022-08-02T01:51:44.224Z,2.78
2022-08-02T01:54:19.368Z,2.65
2022-08-02T01:56:51.918Z,2.80
2022-08-02T01:59:25.111Z,3.30
2022-08-02T02:01:59.768Z,3.10
2022-08-02T02:04:32.156Z,2.55
2022-08-02T02:07:02.954Z,3.05
2022-08-02T02:09:47.852Z,3.20
2022-08-02T02:12:20.628Z,2.35
2022-08-02T02:14:52.052Z,3.65
2022-08-02T02:17:53.023Z,3.10
2022-08-02T02:20:22.220Z,2.90
2022-08-02T02:22:51.153Z,2.53
2022-08-02T02:25:26.857Z,3.97
2022-08-02T02:28:11.944Z,2.50
2022-08-02T02:30:48.668Z,2.85
2022-08-02T02:33:22.669Z,2.80
2022-08-02T02:35:54.214Z,2.63
2022-08-02T02:38:24.762Z,2.53
2022-08-02T02:40:54.652Z,2.65
2022-08-02T02:43:28.092Z,2.38
2022-08-02T02:45:57.828Z,3.10
2022-08-02T02:48:29.453Z,3.63
2022-08-02T02:50:58.865Z,2.95
2022-08-02T02:53:28.735Z,2.35
2022-08-02T02:56:19.729Z,2.80
2022-08-02T02:58:48.629Z,2.40
2022-08-02T03:01:56.290Z,2.88
2022-08-02T03:04:17.898Z,2.33
2022-08-02T03:06:45.141Z,2.85
2022-08-02T03:09:13.014Z,2.83
2022-08-02T03:11:42.036Z,2.50
2022-08-02T03:14:12.671Z,2.70
2022-08-02T03:16:54.701Z,2.55
2022-08-02T03:19:23.946Z,2.75
2022-08-02T03:24:27.810Z,2.75
2022-08-02T03:26:56.438Z,2.35
2022-08-02T03:31:52.435Z,2.60
2022-08-02T03:34:20.763Z,2.95
2022-08-02T03:36:55.532Z,2.80
2022-08-02T03:39:25.679Z,2.65
2022-08-02T03:41:56.295Z,2.50
2022-08-02T03:44:26.639Z,2.40
2022-08-02T03:46:55.350Z,3.10
2022-08-02T03:49:24.991Z,2.67
2022-08-02T03:51:54.473Z,2.92
2022-08-02T03:54:23.203Z,2.60
2022-08-02T03:57:02.691Z,2.72
2022-08-02T03:59:32.589Z,2.80
2022-08-02T04:01:59.749Z,2.60
2022-08-02T04:04:30.540Z,2.80
2022-08-02T04:06:57.520Z,2.33
2022-08-02T04:09:24.921Z,2.80
2022-08-02T04:11:51.933Z,2.40
2022-08-02T04:14:19.768Z,3.15
2022-08-02T04:17:04.754Z,2.78
2022-08-02T04:19:53.818Z,2.70
2022-08-02T04:22:39.538Z,2.92
2022-08-02T04:25:17.202Z,3.10
2022-08-02T04:28:15.299Z,3.00
2022-08-02T04:30:37.583Z,2.75
2022-08-02T04:33:07.176Z,2.67
2022-08-02T04:35:34.616Z,2.38
2022-08-02T04:38:05.758Z,2.75
2022-08-02T04:40:38.195Z,3.00
2022-08-02T04:43:05.527Z,3.03
2022-08-02T04:45:34.113Z,3.13
2022-08-02T04:48:05.115Z,3.00
2022-08-02T04:50:33.544Z,2.97
2022-08-02T04:53:00.747Z,3.17
2022-08-02T04:55:30.519Z,3.00
2022-08-02T04:57:59.702Z,3.30
2022-08-02T05:00:29.889Z,3.42
2022-08-02T05:02:58.949Z,3.50
2022-08-02T05:05:27.449Z,3.25
2022-08-02T05:07:55.856Z,3.80
2022-08-02T05:10:24.112Z,4.00
2022-08-02T05:12:51.221Z,3.22
2022-08-02T05:15:18.792Z,3.13
2022-08-02T05:17:48.999Z,3.50
2022-08-02T05:20:20.654Z,3.42
2022-08-02T05:22:48.062Z,3.30
2022-08-02T05:25:15.964Z,4.57
2022-08-02T05:30:11.736Z,3.47
2022-08-02T05:32:52.749Z,5.70
2022-08-02T05:35:25.023Z,4.22
2022-08-02T05:37:52.638Z,3.35
2022-08-02T05:40:25.534Z,2.50
2022-08-02T05:42:54.968Z,2.50
2022-08-02T05:45:23.107Z,2.92
2022-08-02T05:47:50.329Z,3.90
2022-08-02T05:50:17.936Z,2.70
2022-08-02T05:53:04.675Z,2.95
2022-08-02T05:55:57.303Z,2.78
2022-08-02T05:58:53.178Z,2.55
2022-08-02T06:01:36.852Z,2.78
2022-08-02T06:04:11.473Z,2.65
2022-08-02T06:06:45.103Z,2.65
2022-08-02T06:09:23.048Z,2.50
2022-08-02T06:12:01.502Z,2.47
2022-08-02T06:14:34.072Z,2.78
2022-08-02T06:17:09.294Z,2.90
2022-08-02T06:19:51.527Z,2.80
2022-08-02T06:22:33.028Z,3.33
2022-08-02T06:25:06.322Z,3.53
2022-08-02T06:27:35.868Z,2.90
2022-08-02T06:30:09.639Z,3.30
2022-08-02T06:32:37.568Z,3.63
2022-08-02T06:37:44.313Z,2.70
2022-08-02T06:43:21.288Z,2.60
2022-08-02T06:45:48.370Z,2.83
2022-08-02T06:48:15.914Z,3.15
2022-08-02T06:50:44.337Z,2.38
2022-08-02T06:53:12.919Z,3.33
2022-08-02T06:55:43.258Z,2.80
2022-08-02T06:58:11.811Z,2.80
2022-08-02T07:00:39.133Z,2.55
2022-08-02T07:03:06.643Z,3.30
2022-08-02T07:05:34.768Z,2.90
2022-08-02T07:08:03.035Z,3.20
2022-08-02T07:10:30.264Z,2.65
2022-08-02T07:12:59.925Z,3.28
2022-08-02T07:15:27.316Z,2.40
2022-08-02T07:17:54.522Z,3.38
2022-08-02T07:20:21.621Z,2.97
2022-08-02T07:22:48.955Z,3.38
2022-08-02T07:25:16.495Z,3.00
2022-08-02T07:27:43.603Z,3.05
2022-08-02T07:30:11.590Z,3.53
2022-08-02T07:32:39.039Z,3.17
2022-08-02T07:35:07.756Z,3.20
2022-08-02T07:37:54.617Z,2.88
2022-08-02T07:40:25.136Z,2.53
2022-08-02T07:43:02.974Z,2.90
2022-08-02T07:45:35.786Z,3.00
2022-08-02T07:48:04.163Z,2.40
2022-08-02T07:50:31.283Z,2.70
2022-08-02T07:52:59.232Z,2.88
2022-08-02T07:55:39.651Z,3.05
2022-08-02T07:58:12.540Z,2.80
2022-08-02T08:00:40.967Z,2.53
2022-08-02T08:03:08.049Z,2.92
2022-08-02T08:05:35.095Z,3.33
2022-08-02T08:08:02.260Z,2.78
2022-08-02T08:10:29.253Z,2.58
2022-08-02T08:12:56.266Z,3.97
2022-08-02T08:15:23.321Z,3.45
2022-08-02T08:17:50.353Z,2.17
2022-08-02T08:20:17.535Z,2.70
2022-08-02T08:22:44.551Z,2.55
2022-08-02T08:25:11.547Z,2.20
2022-08-02T08:27:38.529Z,2.25
2022-08-02T08:30:06.394Z,2.55
2022-08-02T08:32:33.765Z,2.38
2022-08-02T08:35:00.791Z,1.83
2022-08-02T08:37:27.799Z,1.75
2022-08-02T08:39:58.207Z,2.33
2022-08-02T08:42:31.890Z,2.28
2022-08-02T08:45:00.636Z,1.90
2022-08-02T08:47:40.835Z,2.13
2022-08-02T08:50:24.815Z,1.95
2022-08-02T08:53:07.884Z,2.35
2022-08-02T08:55:37.729Z,2.15
2022-08-02T08:58:06.510Z,2.40
2022-08-02T09:00:37.024Z,2.10
2022-08-02T09:03:08.618Z,2.22
2022-08-02T09:05:39.202Z,2.60
2022-08-02T09:08:07.912Z,2.47
2022-08-02T09:10:48.474Z,2.92
2022-08-02T09:13:38.085Z,2.40
2022-08-02T09:16:12.690Z,2.17
2022-08-02T09:18:47.448Z,1.92
2022-08-02T09:21:17.630Z,2.20
2022-08-02T09:23:52.719Z,2.38
2022-08-02T09:26:23.930Z,2.00
2022-08-02T09:29:01.503Z,2.20
2022-08-02T09:31:28.822Z,1.77
2022-08-02T09:33:59.775Z,1.98
2022-08-02T09:36:47.831Z,1.67
2022-08-02T09:39:17.553Z,3.07
2022-08-02T09:41:45.767Z,1.85
2022-08-02T09:44:16.674Z,1.80
2022-08-02T09:46:46.687Z,2.05
2022-08-02T09:49:18.308Z,2.17
2022-08-02T09:51:57.025Z,2.25
2022-08-02T09:54:28.847Z,2.00
2022-08-02T09:57:01.989Z,2.00
2022-08-02T09:59:30.914Z,2.10
2022-08-02T10:02:17.493Z,2.00
2022-08-02T10:04:52.086Z,2.17
2022-08-02T10:07:23.361Z,2.20
2022-08-02T10:09:52.554Z,2.10
2022-08-02T10:12:23.438Z,1.75
2022-08-02T10:14:52.308Z,1.98
2022-08-02T10:17:21.679Z,1.70
2022-08-02T10:20:00.561Z,2.30
2022-08-02T10:22:34.760Z,2.95
2022-08-02T10:25:08.481Z,2.13
2022-08-02T10:28:02.922Z,2.25
2022-08-02T10:30:30.472Z,2.40
2022-08-02T10:33:03.868Z,2.30
2022-08-02T10:35:39.354Z,2.38
2022-08-02T10:38:13.099Z,2.22
2022-08-02T10:40:56.100Z,2.00
2022-08-02T10:43:31.951Z,2.35
2022-08-02T10:46:32.488Z,2.63
2022-08-02T10:49:38.135Z,1.85
2022-08-02T10:52:01.580Z,1.90
2022-08-02T10:54:38.957Z,1.88
2022-08-02T10:57:23.020Z,2.17
2022-08-02T10:59:57.819Z,2.20
2022-08-02T11:02:53.073Z,2.35
2022-08-02T11:05:43.249Z,2.00
2022-08-02T11:08:22.960Z,2.08
2022-08-02T11:10:50.100Z,3.50
2022-08-02T11:13:20.014Z,2.70
2022-08-02T11:16:11.186Z,1.60
2022-08-02T11:18:44.874Z,1.98
2022-08-02T11:21:34.371Z,2.22
2022-08-02T11:24:33.405Z,2.20
2022-08-02T11:27:08.703Z,2.20
2022-08-02T11:29:45.029Z,2.00
2022-08-02T11:32:31.051Z,2.40
2022-08-02T11:35:00.593Z,2.00
2022-08-02T11:37:45.504Z,2.63
2022-08-02T11:40:19.624Z,2.20
2022-08-02T11:42:50.735Z,2.25
2022-08-02T11:45:28.964Z,2.17
2022-08-02T11:47:57.320Z,2.05
2022-08-02T11:50:29.669Z,2.67
2022-08-02T11:52:58.030Z,2.55
2022-08-02T11:55:32.608Z,2.13
2022-08-02T11:58:07.962Z,2.20
2022-08-02T12:00:36.186Z,2.13
2022-08-02T12:03:03.451Z,2.15
2022-08-02T12:06:05.125Z,2.25
2022-08-02T12:08:22.448Z,2.30
2022-08-02T12:10:52.962Z,2.20
2022-08-02T12:13:20.374Z,2.42
2022-08-02T12:15:48.024Z,2.65
2022-08-02T12:21:26.332Z,2.20
2022-08-02T12:24:00.584Z,2.55
2022-08-02T12:26:30.583Z,2.10
2022-08-02T12:28:59.522Z,2.15
2022-08-02T12:31:56.365Z,2.30
2022-08-02T12:34:29.971Z,2.17
2022-08-02T12:37:11.141Z,2.20
2022-08-02T12:39:50.025Z,2.25
2022-08-02T12:42:17.720Z,1.83
2022-08-02T12:47:31.287Z,2.28
2022-08-02T12:50:37.263Z,2.22
2022-08-02T12:53:17.707Z,2.08
2022-08-02T12:55:59.830Z,2.38
2022-08-02T12:58:31.705Z,2.63
2022-08-02T13:01:02.267Z,2.13
2022-08-02T13:04:11.855Z,2.15
2022-08-02T13:06:42.024Z,2.05
2022-08-02T13:09:17.615Z,1.88
2022-08-02T13:11:46.369Z,2.10
2022-08-02T13:14:15.568Z,2.13
2022-08-02T13:16:47.009Z,2.10
2022-08-02T13:19:15.819Z,2.10
2022-08-02T13:22:01.049Z,2.20
2022-08-02T13:24:41.134Z,2.40
2022-08-02T13:27:16.023Z,1.83
2022-08-02T13:29:43.439Z,2.15
2022-08-02T13:32:10.850Z,2.08
2022-08-02T13:37:05.263Z,2.05
2022-08-02T13:39:32.463Z,1.95
2022-08-02T13:41:59.560Z,2.28
2022-08-02T13:44:26.663Z,1.70
2022-08-02T13:46:53.702Z,2.00
2022-08-02T13:49:21.934Z,1.70
2022-08-02T13:52:08.662Z,2.20
2022-08-02T13:54:36.443Z,2.25
2022-08-02T13:57:04.097Z,2.20
2022-08-02T13:59:57.262Z,1.95
2022-08-02T14:02:18.396Z,2.08
2022-08-02T14:04:46.026Z,1.92
2022-08-02T14:07:13.098Z,2.42
2022-08-02T14:09:40.415Z,1.80
2022-08-02T14:12:15.636Z,2.40
2022-08-02T14:14:42.892Z,1.80
2022-08-02T14:17:11.273Z,2.10
2022-08-02T14:19:38.569Z,2.15
2022-08-02T14:22:21.179Z,2.28
2022-08-02T14:24:48.609Z,2.08
2022-08-02T14:27:16.047Z,2.40
2022-08-02T14:32:10.694Z,2.28
2022-08-02T14:34:37.988Z,2.40
2022-08-02T14:37:05.188Z,2.08
2022-08-02T14:39:43.240Z,2.00
2022-08-02T14:42:21.115Z,2.33
2022-08-02T14:44:48.160Z,2.50
2022-08-02T14:47:15.593Z,2.45
2022-08-02T14:52:15.942Z,2.33
2022-08-02T14:54:43.303Z,2.20
2022-08-02T14:57:11.671Z,2.42
2022-08-02T14:59:42.290Z,2.47
2022-08-02T15:02:10.958Z,2.35
2022-08-02T15:04:43.314Z,2.13
2022-08-02T15:07:12.159Z,2.83
2022-08-02T15:09:39.558Z,2.40
2022-08-02T15:12:13.920Z,2.40
2022-08-02T15:14:42.605Z,2.78
2022-08-02T15:17:11.048Z,2.72
2022-08-02T15:20:00.127Z,2.17
2022-08-02T15:22:29.055Z,2.40
2022-08-02T15:27:23.744Z,2.10
2022-08-02T15:29:50.776Z,2.58
2022-08-02T15:32:19.760Z,2.75
2022-08-02T15:34:48.026Z,2.55
2022-08-02T15:37:15.335Z,2.30
2022-08-02T15:39:42.372Z,2.15
2022-08-02T15:42:14.901Z,2.05
2022-08-02T15:44:42.097Z,2.10
2022-08-02T15:47:09.444Z,2.30
2022-08-02T15:49:41.079Z,2.45
2022-08-02T15:52:08.847Z,2.55
2022-08-02T15:54:35.987Z,2.58
2022-08-02T15:57:03.194Z,3.22
2022-08-02T15:59:30.311Z,2.20
2022-08-02T16:01:57.447Z,2.83
2022-08-02T16:04:24.615Z,2.63
2022-08-02T16:06:51.596Z,2.75
2022-08-02T16:09:18.749Z,2.63
2022-08-02T16:11:45.757Z,2.35
2022-08-02T16:14:12.790Z,2.28
2022-08-02T16:16:40.480Z,2.50
2022-08-02T16:19:46.586Z,3.35
2022-08-02T16:21:56.364Z,1.98
2022-08-02T16:24:23.866Z,2.17
2022-08-02T16:29:19.791Z,2.53
2022-08-02T16:31:48.216Z,2.20
2022-08-02T16:34:16.834Z,2.45
2022-08-02T16:36:45.129Z,2.45
2022-08-02T16:39:12.913Z,2.50
2022-08-02T16:41:52.228Z,2.20
2022-08-02T16:44:29.412Z,2.40
2022-08-02T16:47:00.571Z,2.50
2022-08-02T16:50:06.961Z,2.35
2022-08-02T16:52:27.883Z,2.60
2022-08-02T16:54:55.628Z,2.50
2022-08-02T16:57:22.742Z,2.50
2022-08-02T16:59:50.863Z,2.30
2022-08-02T17:02:28.577Z,2.28
2022-08-02T17:04:56.750Z,2.42
2022-08-02T17:08:07.069Z,2.50
2022-08-02T17:10:12.928Z,2.33
2022-08-02T17:12:40.909Z,2.53
2022-08-02T17:16:01.054Z,2.55
2022-08-02T17:17:57.866Z,2.72
2022-08-02T17:20:25.193Z,2.13
2022-08-02T17:22:53.458Z,2.42
2022-08-02T17:25:24.795Z,2.45
2022-08-02T17:27:55.998Z,2.42
2022-08-02T17:30:26.975Z,2.22
2022-08-02T17:32:57.674Z,2.78
2022-08-02T17:35:43.459Z,2.45
2022-08-02T17:40:56.021Z,2.67
2022-08-02T17:43:29.158Z,2.53
2022-08-02T17:46:00.471Z,2.47
2022-08-02T17:48:55.049Z,3.33
2022-08-02T17:52:16.003Z,3.30
2022-08-02T17:54:12.747Z,2.92
2022-08-02T17:56:42.348Z,2.80
2022-08-02T17:59:22.310Z,2.92
2022-08-02T18:02:03.577Z,3.17
2022-08-02T18:04:32.284Z,3.10
2022-08-02T18:07:04.607Z,3.00
2022-08-02T18:09:37.781Z,2.30
2022-08-02T18:12:15.870Z,4.25
2022-08-02T18:14:49.272Z,4.85
2022-08-02T18:17:17.158Z,3.58
2022-08-02T18:22:28.310Z,3.50
2022-08-02T18:24:55.419Z,2.70
2022-08-02T18:27:22.696Z,2.95
2022-08-02T18:30:00.005Z,2.60
2022-08-02T18:33:55.167Z,2.85
2022-08-02T18:35:19.537Z,2.55
2022-08-02T18:37:52.180Z,2.72
2022-08-02T18:40:24.789Z,2.58
2022-08-02T18:42:53.188Z,2.80
2022-08-02T18:45:21.629Z,2.97
2022-08-02T18:47:51.058Z,3.80
2022-08-02T18:50:20.095Z,2.67
2022-08-02T18:52:50.376Z,3.55
2022-08-02T18:56:00.089Z,4.85
2022-08-02T18:58:17.888Z,4.10
2022-08-02T19:00:51.525Z,4.03
2022-08-02T19:03:20.302Z,4.70
2022-08-02T19:05:52.242Z,4.13
2022-08-02T19:08:25.654Z,5.65
2022-08-02T19:10:56.294Z,4.50
2022-08-02T19:13:24.460Z,4.22
2022-08-02T19:15:53.641Z,4.82
2022-08-02T19:18:26.825Z,3.80
2022-08-02T19:20:58.217Z,4.88
2022-08-02T19:23:29.669Z,3.80
2022-08-02T19:25:57.232Z,3.50
2022-08-02T19:28:26.049Z,4.03
2022-08-02T19:30:56.781Z,3.17
2022-08-02T19:34:05.687Z,3.50
2022-08-02T19:36:12.452Z,3.67
2022-08-02T19:38:44.318Z,3.22
2022-08-02T19:41:13.728Z,5.10
2022-08-02T19:44:26.683Z,4.40
2022-08-02T19:46:27.859Z,3.40
2022-08-02T19:48:55.122Z,4.25
2022-08-02T19:51:54.515Z,4.05
2022-08-02T19:54:10.516Z,3.90
2022-08-02T19:56:38.149Z,4.70
2022-08-02T20:01:46.384Z,5.18
2022-08-02T20:04:23.141Z,4.78
2022-08-02T20:06:51.299Z,4.93
2022-08-02T20:09:22.917Z,5.10
2022-08-02T20:11:54.864Z,5.95
2022-08-02T20:14:27.369Z,5.63
2022-08-02T20:16:58.527Z,5.82
2022-08-02T20:19:29.183Z,5.35
2022-08-02T20:21:59.642Z,5.40
2022-08-02T20:24:27.636Z,5.43
2022-08-02T20:26:59.250Z,5.88
2022-08-02T20:29:42.925Z,5.88
2022-08-02T20:32:12.961Z,6.60
2022-08-02T20:37:59.224Z,5.55
2022-08-02T20:39:54.307Z,5.57
2022-08-02T20:42:24.583Z,5.82
2022-08-02T20:44:55.731Z,5.93
2022-08-02T20:47:27.557Z,5.40
2022-08-02T20:50:15.268Z,5.15
2022-08-02T20:52:44.165Z,6.30
2022-08-02T20:55:17.235Z,5.90
2022-08-02T20:58:00.111Z,4.85
2022-08-02T21:00:28.708Z,4.88
2022-08-02T21:02:55.954Z,5.25
2022-08-02T21:05:43.853Z,4.30
2022-08-02T21:08:14.700Z,5.05
2022-08-02T21:10:52.108Z,4.90
2022-08-02T21:13:23.410Z,4.97
2022-08-02T21:15:54.115Z,5.68
2022-08-02T21:18:27.848Z,4.78
2022-08-02T21:21:09.133Z,4.50
2022-08-02T21:23:38.013Z,4.88
2022-08-02T21:26:09.047Z,4.90
2022-08-02T21:28:44.084Z,4.10
2022-08-02T21:31:15.777Z,4.68
2022-08-02T21:33:58.019Z,4.50
2022-08-02T21:36:33.976Z,4.35
2022-08-02T21:39:08.917Z,4.68
2022-08-02T21:41:46.469Z,4.32
2022-08-02T21:44:20.717Z,4.03
2022-08-02T21:46:52.903Z,3.97
2022-08-02T21:49:40.641Z,4.43
2022-08-02T21:52:13.197Z,4.32
2022-08-02T21:54:41.055Z,4.30
2022-08-02T21:57:16.347Z,4.45
2022-08-02T21:59:52.800Z,4.65
2022-08-02T22:04:58.493Z,4.53
2022-08-02T22:07:25.661Z,4.40
2022-08-02T22:09:54.000Z,4.70
2022-08-02T22:12:26.459Z,4.45
2022-08-02T22:14:56.308Z,4.95
2022-08-02T22:17:51.036Z,4.50
2022-08-02T22:20:20.217Z,4.05
2022-08-02T22:22:52.101Z,4.85
2022-08-02T22:25:31.038Z,4.97
2022-08-02T22:28:37.312Z,5.07
2022-08-02T22:30:59.906Z,5.00
2022-08-02T22:33:47.068Z,4.82
2022-08-02T22:36:30.672Z,4.88
2022-08-02T22:38:58.924Z,5.18
2022-08-02T22:42:01.071Z,5.00
2022-08-02T22:44:14.774Z,5.07
2022-08-02T22:46:43.851Z,4.70
2022-08-02T22:49:36.837Z,4.87
2022-08-02T22:51:58.425Z,5.07
2022-08-02T22:54:25.433Z,5.22
2022-08-02T22:56:52.576Z,4.40
2022-08-02T22:59:20.144Z,4.85
2022-08-02T23:02:05.665Z,4.28
2022-08-02T23:04:32.854Z,5.20
2022-08-02T23:06:59.990Z,4.93
2022-08-02T23:09:27.293Z,4.32
2022-08-02T23:11:54.858Z,5.40
2022-08-02T23:14:22.124Z,5.45
2022-08-02T23:17:09.008Z,4.43
2022-08-02T23:19:51.257Z,4.78
2022-08-02T23:22:30.151Z,4.70
2022-08-02T23:25:06.445Z,5.28
2022-08-02T23:27:34.702Z,4.95
2022-08-02T23:30:02.479Z,4.85
2022-08-02T23:32:30.433Z,5.65
2022-08-02T23:34:59.040Z,5.10
2022-08-02T23:37:27.368Z,5.57
2022-08-02T23:39:54.400Z,4.63
2022-08-02T23:42:23.834Z,5.27
2022-08-02T23:44:52.021Z,5.07
2022-08-02T23:47:19.888Z,4.82
2022-08-02T23:52:14.773Z,5.50
2022-08-02T23:54:42.058Z,4.60
2022-08-02T23:57:20.634Z,4.90
2022-08-02T23:59:51.394Z,5.60
